createdAt,value
2018-05-16T00:00:34.994Z,7.53
2018-05-16T00:05:36.342Z,9.40
2018-05-16T00:10:37.655Z,8.40
2018-05-16T00:15:38.962Z,8.50
2018-05-16T00:20:40.278Z,9.17
2018-05-16T00:25:42.323Z,9.27
2018-05-16T00:30:43.635Z,9.20
2018-05-16T00:35:44.945Z,8.80
2018-05-16T00:40:46.266Z,9.23
2018-05-16T00:45:47.569Z,8.37
2018-05-16T00:51:07.459Z,8.90
2018-05-16T00:56:08.775Z,9.20
2018-05-16T01:01:10.097Z,11.10
2018-05-16T01:06:11.453Z,9.27
2018-05-16T01:11:12.735Z,7.70
2018-05-16T01:16:14.814Z,8.53
2018-05-16T01:21:16.142Z,9.10
2018-05-16T01:26:17.466Z,9.60
2018-05-16T01:31:18.773Z,8.00
2018-05-16T01:36:20.083Z,8.37
2018-05-16T01:41:22.127Z,9.17
2018-05-16T01:46:23.422Z,9.40
2018-05-16T01:51:24.757Z,10.90
2018-05-16T01:56:26.066Z,10.17
2018-05-16T02:01:28.099Z,11.10
2018-05-16T02:06:29.422Z,12.07
2018-05-16T02:11:30.725Z,13.03
2018-05-16T02:16:32.059Z,13.63
2018-05-16T02:21:33.371Z,13.30
2018-05-16T02:26:34.678Z,13.53
2018-05-16T02:31:35.982Z,13.90
2018-05-16T02:36:37.307Z,12.80
2018-05-16T02:41:39.352Z,11.30
2018-05-16T02:46:40.647Z,10.73
2018-05-16T02:51:41.958Z,10.63
2018-05-16T02:56:43.247Z,9.73
2018-05-16T03:01:44.557Z,9.20
2018-05-16T03:06:46.627Z,8.73
2018-05-16T03:11:47.938Z,7.73
2018-05-16T03:16:49.973Z,7.13
2018-05-16T03:21:51.278Z,6.80
2018-05-16T03:26:52.589Z,5.77
2018-05-16T03:31:53.882Z,7.80
2018-05-16T03:36:55.191Z,8.97
2018-05-16T03:41:56.498Z,9.37
2018-05-16T03:46:58.542Z,9.27
2018-05-16T03:51:59.900Z,10.43
2018-05-16T03:57:01.567Z,10.00
2018-05-16T04:02:21.692Z,12.07
2018-05-16T04:07:23.206Z,10.33
2018-05-16T04:12:24.641Z,10.50
2018-05-16T04:17:27.037Z,10.73
2018-05-16T04:22:28.380Z,9.50
2018-05-16T04:27:29.665Z,10.40
2018-05-16T04:32:31.826Z,10.70
2018-05-16T04:37:33.186Z,10.17
2018-05-16T04:42:34.545Z,6.90
2018-05-16T04:47:35.867Z,8.40
2018-05-16T04:52:37.169Z,9.17
2018-05-16T04:57:39.217Z,10.03
2018-05-16T05:02:40.540Z,9.83
2018-05-16T05:07:41.866Z,11.27
2018-05-16T05:12:43.168Z,11.07
2018-05-16T05:17:44.466Z,9.50
2018-05-16T05:22:45.771Z,9.20
2018-05-16T05:27:47.089Z,9.10
2018-05-16T05:32:48.415Z,10.03
2018-05-16T05:37:49.710Z,11.20
2018-05-16T05:42:51.030Z,12.50
2018-05-16T05:47:52.329Z,12.40
2018-05-16T05:52:53.631Z,13.07
2018-05-16T05:57:54.937Z,20.13
2018-05-16T06:02:57.004Z,14.33
2018-05-16T06:07:58.323Z,14.83
2018-05-16T06:12:59.630Z,15.57
2018-05-16T06:18:01.682Z,14.80
2018-05-16T06:23:02.978Z,14.27
2018-05-16T06:28:04.310Z,14.67
2018-05-16T06:33:06.358Z,15.30
2018-05-16T06:38:07.680Z,14.97
2018-05-16T06:43:08.986Z,15.37
2018-05-16T06:48:10.313Z,14.57
2018-05-16T06:53:11.622Z,15.87
2018-05-16T06:58:12.941Z,16.07
2018-05-16T07:03:14.258Z,14.70
2018-05-16T07:08:16.294Z,16.10
2018-05-16T07:13:17.605Z,16.37
2018-05-16T07:18:18.906Z,14.80
2018-05-16T07:23:20.196Z,16.50
2018-05-16T07:28:21.489Z,16.67
2018-05-16T07:33:22.785Z,17.43
2018-05-16T07:38:24.089Z,15.70
2018-05-16T07:43:26.150Z,14.60
2018-05-16T07:48:27.461Z,14.50
2018-05-16T07:53:28.788Z,13.70
2018-05-16T07:58:30.111Z,14.70
2018-05-16T08:03:31.441Z,14.00
2018-05-16T08:08:33.492Z,14.03
2018-05-16T08:13:34.793Z,14.23
2018-05-16T08:18:36.090Z,13.50
2018-05-16T08:23:37.402Z,13.40
2018-05-16T08:28:38.714Z,13.90
2018-05-16T08:33:40.771Z,14.07
2018-05-16T08:38:42.079Z,12.30
2018-05-16T08:43:43.398Z,12.97
2018-05-16T08:48:45.469Z,12.47
2018-05-16T08:53:46.782Z,11.50
2018-05-16T08:58:48.831Z,12.10
2018-05-16T09:03:50.146Z,12.13
2018-05-16T09:08:51.442Z,12.33
2018-05-16T09:13:52.773Z,12.53
2018-05-16T09:18:54.069Z,11.10
2018-05-16T09:23:55.385Z,10.73
2018-05-16T09:28:56.693Z,10.70
2018-05-16T09:33:57.994Z,12.57
2018-05-16T09:38:59.289Z,13.10
2018-05-16T09:44:00.581Z,12.00
2018-05-16T09:49:01.887Z,11.87
2018-05-16T09:54:03.953Z,11.73
2018-05-16T09:59:05.286Z,11.83
2018-05-16T10:04:07.377Z,12.23
2018-05-16T10:09:09.413Z,10.93
2018-05-16T10:14:10.734Z,10.77
2018-05-16T10:19:12.052Z,11.83
2018-05-16T10:24:13.355Z,11.93
2018-05-16T10:29:15.399Z,10.27
2018-05-16T10:34:16.714Z,11.50
2018-05-16T10:39:18.009Z,11.97
2018-05-16T10:44:19.316Z,12.03
2018-05-16T10:49:21.348Z,11.03
2018-05-16T10:54:22.641Z,12.23
2018-05-16T10:59:23.945Z,11.00
2018-05-16T11:04:25.296Z,10.50
2018-05-16T11:09:27.325Z,10.67
2018-05-16T11:14:28.614Z,10.70
2018-05-16T11:19:29.913Z,10.40
2018-05-16T11:24:31.221Z,10.90
2018-05-16T11:29:32.526Z,10.83
2018-05-16T11:34:33.840Z,10.93
2018-05-16T11:39:35.145Z,12.93
2018-05-16T11:44:37.212Z,12.70
2018-05-16T11:49:38.518Z,12.03
2018-05-16T11:54:39.843Z,12.80
2018-05-16T11:59:41.147Z,12.60
2018-05-16T12:04:42.545Z,13.40
2018-05-16T12:09:50.845Z,12.17
2018-05-16T12:14:52.919Z,13.07
2018-05-16T12:19:54.228Z,13.83
2018-05-16T12:24:55.533Z,14.70
2018-05-16T12:29:57.582Z,14.60
2018-05-16T12:34:58.890Z,13.93
2018-05-16T12:40:00.221Z,14.50
2018-05-16T12:45:02.315Z,13.60
2018-05-16T12:50:03.651Z,12.17
2018-05-16T12:55:04.958Z,13.80
2018-05-16T13:00:06.304Z,12.70
2018-05-16T13:05:08.373Z,13.63
2018-05-16T13:10:09.681Z,13.00
2018-05-16T13:15:10.994Z,11.57
2018-05-16T13:20:12.285Z,12.83
2018-05-16T13:25:14.337Z,11.83
2018-05-16T13:30:15.650Z,12.23
2018-05-16T13:35:16.979Z,11.83
2018-05-16T13:40:18.291Z,13.03
2018-05-16T13:45:19.646Z,13.10
2018-05-16T13:50:21.697Z,13.20
2018-05-16T13:55:23.023Z,12.10
2018-05-16T14:00:24.319Z,12.23
2018-05-16T14:05:26.399Z,12.40
2018-05-16T14:10:27.711Z,13.37
2018-05-16T14:15:29.777Z,11.47
2018-05-16T14:20:31.217Z,11.30
2018-05-16T14:25:33.304Z,10.23
2018-05-16T14:30:34.626Z,10.93
2018-05-16T14:35:35.950Z,11.70
2018-05-16T14:40:37.278Z,11.40
2018-05-16T14:45:39.319Z,11.63
2018-05-16T14:50:40.641Z,13.67
2018-05-16T14:55:42.088Z,14.37
2018-05-16T15:00:44.965Z,14.77
2018-05-16T15:05:46.327Z,15.10
2018-05-16T15:10:47.663Z,16.70
2018-05-16T15:15:49.090Z,17.47
2018-05-16T15:20:50.407Z,18.10
2018-05-16T15:25:51.718Z,16.77
2018-05-16T15:30:53.034Z,17.10
2018-05-16T15:35:54.377Z,14.40
2018-05-16T15:40:55.685Z,15.53
2018-05-16T15:45:57.019Z,14.73
2018-05-16T15:50:59.080Z,15.60
2018-05-16T15:56:01.302Z,15.33
2018-05-16T16:01:02.655Z,17.03
2018-05-16T16:06:04.005Z,20.87
2018-05-16T16:11:07.357Z,22.87
2018-05-16T16:16:08.673Z,11.77
2018-05-16T16:21:10.017Z,9.30
2018-05-16T16:26:11.340Z,7.30
2018-05-16T16:31:12.754Z,8.27
2018-05-16T16:36:13.997Z,9.73
2018-05-16T16:41:17.026Z,9.90
2018-05-16T16:46:18.404Z,9.60
2018-05-16T16:51:20.469Z,9.60
2018-05-16T16:56:21.851Z,10.97
2018-05-16T17:01:23.865Z,9.60
2018-05-16T17:06:25.224Z,9.47
2018-05-16T17:11:26.734Z,8.97
2018-05-16T17:16:28.146Z,8.87
2018-05-16T17:21:29.542Z,10.70
2018-05-16T17:26:31.087Z,11.50
2018-05-16T17:31:32.709Z,10.20
2018-05-16T17:36:34.419Z,11.47
2018-05-16T17:41:37.442Z,13.10
2018-05-16T17:46:46.949Z,13.83
2018-05-16T17:51:48.332Z,11.70
2018-05-16T17:56:50.570Z,11.10
2018-05-16T18:01:53.504Z,11.47
2018-05-16T18:06:55.776Z,10.40
2018-05-16T18:11:58.376Z,9.97
2018-05-16T18:17:18.862Z,11.30
2018-05-16T18:22:20.520Z,10.27
2018-05-16T18:27:22.674Z,9.60
2018-05-16T18:32:26.036Z,8.70
2018-05-16T18:37:27.699Z,8.90
2018-05-16T18:42:30.824Z,10.33
2018-05-16T18:47:32.985Z,9.13
2018-05-16T18:52:34.445Z,6.50
2018-05-16T18:57:37.127Z,7.77
2018-05-16T19:02:38.450Z,7.50
2018-05-16T19:07:40.815Z,6.53
2018-05-16T19:12:42.169Z,7.73
2018-05-16T19:17:44.219Z,6.80
2018-05-16T19:22:45.658Z,7.43
2018-05-16T19:27:47.822Z,6.53
2018-05-16T19:32:50.021Z,6.70
2018-05-16T19:37:51.399Z,5.90
2018-05-16T19:42:52.727Z,7.33
2018-05-16T19:47:54.526Z,7.63
2018-05-16T19:52:55.842Z,7.27
2018-05-16T19:57:57.913Z,6.77
2018-05-16T20:02:59.282Z,7.10
2018-05-16T20:08:00.652Z,6.30
2018-05-16T20:13:01.989Z,6.80
2018-05-16T20:18:03.349Z,6.40
2018-05-16T20:23:04.686Z,6.83
2018-05-16T20:28:07.105Z,6.70
2018-05-16T20:33:10.343Z,6.90
2018-05-16T20:38:11.898Z,4.43
2018-05-16T20:43:13.207Z,5.17
2018-05-16T20:48:20.835Z,5.57
2018-05-16T20:53:22.213Z,6.60
2018-05-16T20:58:23.555Z,5.60
2018-05-16T21:03:25.618Z,4.93
2018-05-16T21:08:26.970Z,4.70
2018-05-16T21:13:28.310Z,4.90
2018-05-16T21:18:29.614Z,5.77
2018-05-16T21:23:31.681Z,4.50
2018-05-16T21:28:33.081Z,5.03
2018-05-16T21:33:35.092Z,4.30
2018-05-16T21:38:36.404Z,4.40
2018-05-16T21:43:37.733Z,5.53
2018-05-16T21:48:39.056Z,4.80
2018-05-16T21:53:40.375Z,4.00
2018-05-16T21:58:41.699Z,4.50
2018-05-16T22:03:43.035Z,4.40
2018-05-16T22:08:44.373Z,3.47
2018-05-16T22:13:45.695Z,4.00
2018-05-16T22:18:47.005Z,6.80
2018-05-16T22:23:48.306Z,5.00
2018-05-16T22:28:49.644Z,5.10
2018-05-16T22:33:57.139Z,4.00
2018-05-16T22:39:05.329Z,4.43
2018-05-16T22:44:20.464Z,3.87
2018-05-16T22:49:21.779Z,3.97
2018-05-16T22:54:23.094Z,3.30
2018-05-16T22:59:25.159Z,3.20
2018-05-16T23:04:26.481Z,3.90
2018-05-16T23:09:28.521Z,4.10
2018-05-16T23:14:29.864Z,4.00
2018-05-16T23:19:31.205Z,3.60
2018-05-16T23:24:32.519Z,3.10
2018-05-16T23:29:33.851Z,3.73
2018-05-16T23:34:36.047Z,5.10
2018-05-16T23:39:37.826Z,3.10
2018-05-16T23:44:39.373Z,4.00
2018-05-16T23:49:40.687Z,4.80
2018-05-16T23:54:42.347Z,3.60
2018-05-16T23:59:44.036Z,3.60
